Time;durP1;ratioP1;P1;durP2;ratioP2;P2;SDS_P1;SDS_P2;PMS_P1;PMS_P2;Temp;Humidity;BMP_temperature;BMP_pressure;BME280_temperature;BME280_humidity;BME280_pressure;Samples;Min_cycle;Max_cycle;Signal;HPM_P1;HPM_P2
2021/07/26 00:00:22;;;;;;;3.33;3.03;;;19.10;79.40;;;;;;4984078;28;20038;-64
2021/07/26 00:02:47;;;;;;;6.13;3.40;;;19.10;79.40;;;;;;4984617;28;20099;-65
2021/07/26 00:05:13;;;;;;;3.42;3.13;;;19.10;79.50;;;;;;4985235;28;20039;-65
2021/07/26 00:07:39;;;;;;;3.60;3.30;;;19.00;79.70;;;;;;4983519;28;20041;-64
2021/07/26 00:10:06;;;;;;;3.58;3.38;;;19.00;79.80;;;;;;4985040;28;20697;-65
2021/07/26 00:12:32;;;;;;;3.72;3.33;;;19.00;79.80;;;;;;4982121;28;20046;-65
2021/07/26 00:14:59;;;;;;;3.95;3.17;;;18.90;80.00;;;;;;4984154;28;20038;-65
2021/07/26 00:17:26;;;;;;;4.10;3.08;;;18.90;80.10;;;;;;4998548;28;20057;-65
2021/07/26 00:19:52;;;;;;;4.25;3.28;;;18.90;80.30;;;;;;4984525;28;20231;-65
2021/07/26 00:22:17;;;;;;;5.47;3.40;;;18.80;80.50;;;;;;4984935;28;20057;-65
2021/07/26 00:24:43;;;;;;;5.00;3.30;;;18.80;80.60;;;;;;4983915;28;20512;-65
2021/07/26 00:27:08;;;;;;;4.32;3.38;;;18.80;80.80;;;;;;4984604;28;20501;-65
2021/07/26 00:29:34;;;;;;;4.30;3.55;;;18.70;80.90;;;;;;4986464;28;20039;-65
2021/07/26 00:32:00;;;;;;;6.00;3.95;;;18.70;81.00;;;;;;4987792;28;20116;-65
2021/07/26 00:34:26;;;;;;;4.18;3.78;;;18.70;81.20;;;;;;4986215;28;20041;-64
2021/07/26 00:36:57;;;;;;;4.15;3.63;;;18.70;81.50;;;;;;4984753;28;20042;-65
2021/07/26 00:39:26;;;;;;;4.13;3.75;;;18.70;81.50;;;;;;4987852;28;20061;-65
2021/07/26 00:41:52;;;;;;;5.40;3.72;;;18.70;81.50;;;;;;4985216;28;20137;-65
2021/07/26 00:44:19;;;;;;;5.03;3.53;;;18.70;81.50;;;;;;4984837;28;20839;-65
2021/07/26 00:46:46;;;;;;;3.95;3.65;;;18.80;81.50;;;;;;4985556;28;20117;-65
2021/07/26 00:49:14;;;;;;;3.95;3.55;;;18.80;81.50;;;;;;4981620;28;20045;-65
2021/07/26 00:51:51;;;;;;;4.90;3.70;;;18.80;81.50;;;;;;4981543;28;20034;-64
2021/07/26 00:54:26;;;;;;;3.70;3.40;;;18.90;81.50;;;;;;4983803;28;20035;-65
2021/07/26 00:56:52;;;;;;;3.63;3.17;;;18.90;81.60;;;;;;4983896;28;20045;-65
2021/07/26 00:59:18;;;;;;;8.02;3.95;;;18.90;81.30;;;;;;4999645;28;20049;-65
2021/07/26 01:01:44;;;;;;;5.20;3.58;;;18.90;81.30;;;;;;4983640;28;20030;-65
2021/07/26 01:04:10;;;;;;;4.93;3.92;;;18.90;81.30;;;;;;4984917;28;20030;-65
2021/07/26 01:06:36;;;;;;;4.75;3.53;;;18.90;81.20;;;;;;4986143;28;20038;-65
2021/07/26 01:09:03;;;;;;;10.05;3.85;;;18.90;81.20;;;;;;4985386;28;20027;-65
2021/07/26 01:11:29;;;;;;;8.95;3.75;;;18.90;81.20;;;;;;4989604;28;20029;-65
2021/07/26 01:13:55;;;;;;;6.05;4.22;;;18.90;81.20;;;;;;4989707;28;20539;-65
2021/07/26 01:16:22;;;;;;;11.52;4.38;;;18.90;81.30;;;;;;4991300;28;20035;-65
2021/07/26 01:18:48;;;;;;;12.00;4.13;;;18.80;81.50;;;;;;4992937;28;20038;-65
2021/07/26 01:21:15;;;;;;;9.75;4.38;;;18.80;81.60;;;;;;4991720;28;20065;-65
2021/07/26 01:23:43;;;;;;;6.80;3.88;;;18.80;81.80;;;;;;4993578;28;20042;-65
2021/07/26 01:26:12;;;;;;;12.52;4.22;;;18.70;81.90;;;;;;4993899;28;20116;-64
2021/07/26 01:28:43;;;;;;;8.18;4.10;;;18.70;82.20;;;;;;4993105;28;20121;-65
2021/07/26 01:31:10;;;;;;;9.82;4.40;;;18.70;82.70;;;;;;4989164;28;20034;-64
2021/07/26 01:33:36;;;;;;;16.08;4.40;;;18.70;82.60;;;;;;4987761;28;20065;-64
2021/07/26 01:36:02;;;;;;;5.18;3.83;;;18.60;82.70;;;;;;4992000;28;20117;-65
2021/07/26 01:38:28;;;;;;;8.80;4.03;;;18.60;82.80;;;;;;4991400;28;20125;-66
2021/07/26 01:40:54;;;;;;;7.22;3.78;;;18.60;82.90;;;;;;4991770;28;20027;-64
2021/07/26 01:43:24;;;;;;;8.68;3.83;;;18.70;83.10;;;;;;4990260;28;20041;-65
2021/07/26 01:46:09;;;;;;;9.10;3.70;;;18.70;83.10;;;;;;4991051;28;20048;-65
2021/07/26 01:49:10;;;;;;;14.87;4.30;;;18.70;83.50;;;;;;4991395;28;20544;-64
2021/07/26 01:51:39;;;;;;;11.00;4.00;;;18.70;83.50;;;;;;4989537;28;20351;-65
2021/07/26 01:54:05;;;;;;;6.82;3.85;;;18.70;83.00;;;;;;4990274;28;20501;-64
2021/07/26 01:56:32;;;;;;;9.90;4.03;;;18.70;82.80;;;;;;4991661;28;20057;-65
2021/07/26 01:58:59;;;;;;;5.10;4.13;;;18.80;82.70;;;;;;4994757;28;20042;-65
2021/07/26 02:01:25;;;;;;;6.97;3.53;;;18.80;82.70;;;;;;4990190;28;20037;-65
2021/07/26 02:03:50;;;;;;;10.43;4.20;;;18.80;82.70;;;;;;4987512;28;20049;-65
2021/07/26 02:06:16;;;;;;;13.25;5.15;;;18.80;82.70;;;;;;4992615;28;20144;-64
2021/07/26 02:08:41;;;;;;;8.57;4.63;;;18.80;82.60;;;;;;4991627;28;20421;-65
2021/07/26 02:11:07;;;;;;;6.50;4.30;;;18.80;82.50;;;;;;4991151;28;20096;-65
2021/07/26 02:13:36;;;;;;;6.63;4.32;;;18.80;82.50;;;;;;4992148;28;20042;-65
2021/07/26 02:16:01;;;;;;;15.48;4.45;;;18.80;82.60;;;;;;4988104;28;20509;-65
2021/07/26 02:18:27;;;;;;;8.98;3.95;;;18.80;82.50;;;;;;4990608;28;20130;-65
2021/07/26 02:20:53;;;;;;;8.93;3.97;;;18.80;82.60;;;;;;5003979;28;20409;-65
2021/07/26 02:23:18;;;;;;;8.73;4.50;;;18.80;82.60;;;;;;4988990;28;20054;-65
2021/07/26 02:25:44;;;;;;;8.02;3.85;;;18.80;82.60;;;;;;4984886;28;20125;-65
2021/07/26 02:28:09;;;;;;;7.05;3.97;;;18.80;82.60;;;;;;4987195;28;20052;-65
2021/07/26 02:30:35;;;;;;;9.30;3.88;;;18.80;82.60;;;;;;4987834;28;20456;-65
2021/07/26 02:33:01;;;;;;;7.70;3.85;;;18.80;82.70;;;;;;4989490;28;20472;-65
2021/07/26 02:35:29;;;;;;;5.90;3.90;;;18.80;82.60;;;;;;4988393;28;20073;-66
2021/07/26 02:37:57;;;;;;;7.38;3.95;;;18.90;82.60;;;;;;4987634;28;20026;-65
2021/07/26 02:40:22;;;;;;;6.07;3.85;;;18.90;83.40;;;;;;4988638;28;20064;-65
2021/07/26 02:42:48;;;;;;;6.80;4.35;;;18.90;82.60;;;;;;4989572;28;20497;-65
2021/07/26 02:45:14;;;;;;;8.05;4.18;;;18.90;82.40;;;;;;4987885;28;20073;-65
2021/07/26 02:47:39;;;;;;;6.53;3.88;;;18.90;82.40;;;;;;4988697;28;20043;-65
2021/07/26 02:50:06;;;;;;;5.70;4.18;;;18.90;82.20;;;;;;4987214;28;20082;-64
2021/07/26 02:52:33;;;;;;;5.10;4.53;;;18.90;82.20;;;;;;4985053;28;20037;-65
2021/07/26 02:54:59;;;;;;;5.05;4.45;;;18.90;82.10;;;;;;4985132;28;20046;-63
2021/07/26 02:57:24;;;;;;;5.40;4.30;;;18.90;82.20;;;;;;4988316;28;20523;-64
2021/07/26 02:59:50;;;;;;;5.93;4.15;;;18.90;82.20;;;;;;4986942;28;20050;-65
2021/07/26 03:02:16;;;;;;;5.60;4.35;;;18.90;82.10;;;;;;4985552;28;20093;-65
2021/07/26 03:04:41;;;;;;;5.47;3.90;;;18.90;82.20;;;;;;4986536;28;20046;-65
2021/07/26 03:07:07;;;;;;;5.45;4.22;;;18.90;82.40;;;;;;4986186;28;20892;-65
2021/07/26 03:09:33;;;;;;;5.85;4.43;;;18.90;82.50;;;;;;4986649;28;20117;-64
2021/07/26 03:11:58;;;;;;;4.50;3.90;;;18.90;82.70;;;;;;4985333;28;20034;-65
2021/07/26 03:14:24;;;;;;;4.70;3.80;;;18.90;82.70;;;;;;4985897;28;20669;-64
2021/07/26 03:16:49;;;;;;;4.90;3.40;;;18.80;82.60;;;;;;4986232;28;20097;-65
2021/07/26 03:19:15;;;;;;;4.93;3.95;;;18.80;82.60;;;;;;4984927;28;20524;-65
2021/07/26 03:21:40;;;;;;;5.88;3.83;;;18.90;82.70;;;;;;4988690;28;20038;-65
2021/07/26 03:24:06;;;;;;;10.63;3.90;;;18.90;82.70;;;;;;4985792;28;20030;-65
2021/07/26 03:26:32;;;;;;;5.72;3.78;;;18.80;82.70;;;;;;4985753;28;20478;-65
2021/07/26 03:28:57;;;;;;;5.00;3.28;;;18.90;82.80;;;;;;4985047;28;20039;-65
2021/07/26 03:31:23;;;;;;;6.22;3.90;;;18.90;82.90;;;;;;4984654;28;20037;-64
2021/07/26 03:33:49;;;;;;;7.15;3.72;;;18.90;83.10;;;;;;4980852;28;20647;-64
2021/07/26 03:36:14;;;;;;;9.45;3.55;;;18.90;83.10;;;;;;4982145;28;20045;-64
2021/07/26 03:38:40;;;;;;;7.38;4.22;;;18.90;83.00;;;;;;4984495;28;20038;-65
2021/07/26 03:41:06;;;;;;;7.85;4.70;;;18.90;83.10;;;;;;4981947;28;20332;-64
2021/07/26 03:43:32;;;;;;;10.07;4.63;;;18.80;83.10;;;;;;4985867;28;20497;-64
2021/07/26 03:45:57;;;;;;;5.30;4.15;;;18.80;83.50;;;;;;4983081;28;20117;-64
2021/07/26 03:48:23;;;;;;;7.88;4.15;;;18.70;83.70;;;;;;4986536;28;20034;-64
2021/07/26 03:50:49;;;;;;;7.85;4.55;;;18.70;84.10;;;;;;4984517;28;20038;-64
2021/07/26 03:53:17;;;;;;;7.03;5.15;;;18.70;84.50;;;;;;4987853;28;20056;-64
2021/07/26 03:55:43;;;;;;;12.75;5.18;;;18.70;85.50;;;;;;4985912;28;20237;-64
2021/07/26 03:58:08;;;;;;;8.70;4.80;;;18.70;84.50;;;;;;4985017;28;20426;-64
2021/07/26 04:00:34;;;;;;;9.30;5.15;;;18.70;84.50;;;;;;4985308;28;20029;-63
2021/07/26 04:08:17;;;;;;;10.90;5.50;;;18.70;84.20;;;;;;4986309;28;20068;-64
2021/07/26 04:10:45;;;;;;;9.10;5.10;;;18.70;84.50;;;;;;4983013;28;20668;-64
2021/07/26 04:13:11;;;;;;;10.40;5.63;;;18.70;84.50;;;;;;4985401;28;20062;-64
2021/07/26 04:15:39;;;;;;;13.40;5.80;;;18.80;84.50;;;;;;4984256;28;20065;-64
2021/07/26 04:18:04;;;;;;;11.63;5.35;;;18.80;84.40;;;;;;4979485;28;20030;-64
2021/07/26 04:20:30;;;;;;;7.80;5.93;;;18.80;84.20;;;;;;4984272;28;20409;-64
2021/07/26 04:22:57;;;;;;;9.68;6.28;;;18.80;84.10;;;;;;4984975;28;20089;-64
2021/07/26 04:25:22;;;;;;;9.93;6.35;;;18.90;84.20;;;;;;4985423;28;20045;-64
2021/07/26 04:27:48;;;;;;;13.27;7.78;;;18.90;84.30;;;;;;4985565;28;20177;-65
2021/07/26 04:30:14;;;;;;;12.68;9.23;;;18.90;84.30;;;;;;4986556;28;20065;-64
2021/07/26 04:32:48;;;;;;;9.73;7.15;;;18.90;84.30;;;;;;4983478;28;20105;-64
2021/07/26 04:35:15;;;;;;;11.98;6.95;;;18.90;84.50;;;;;;4986562;28;20061;-65
2021/07/26 04:37:41;;;;;;;8.52;6.72;;;18.90;84.10;;;;;;4982374;28;20034;-64
2021/07/26 04:40:09;;;;;;;9.40;6.78;;;18.90;83.90;;;;;;4985235;28;20100;-64
2021/07/26 04:42:39;;;;;;;10.35;6.13;;;18.90;84.00;;;;;;4983193;28;20038;-64
2021/07/26 04:45:06;;;;;;;7.97;5.60;;;18.90;84.30;;;;;;4986883;28;20049;-65
2021/07/26 04:47:32;;;;;;;8.27;5.93;;;18.90;84.30;;;;;;4989540;28;20038;-65
2021/07/26 04:49:58;;;;;;;6.88;5.97;;;18.90;84.40;;;;;;4986036;28;20427;-65
2021/07/26 04:52:23;;;;;;;8.98;6.70;;;18.90;84.50;;;;;;4987845;28;20030;-64
2021/07/26 04:54:49;;;;;;;10.93;6.47;;;18.90;84.50;;;;;;4987708;28;20532;-65
2021/07/26 04:57:15;;;;;;;9.40;7.65;;;19.00;84.60;;;;;;4987730;28;20709;-65
2021/07/26 04:59:41;;;;;;;9.70;6.82;;;19.00;84.50;;;;;;4989405;28;20042;-64
2021/07/26 05:02:06;;;;;;;7.43;6.35;;;19.00;84.50;;;;;;4988261;28;20038;-65
2021/07/26 05:04:32;;;;;;;12.25;6.45;;;19.00;84.50;;;;;;4987975;28;20501;-65
2021/07/26 05:07:00;;;;;;;9.15;6.07;;;19.10;84.50;;;;;;4982517;28;20041;-65
2021/07/26 05:09:25;;;;;;;8.73;6.10;;;19.10;84.30;;;;;;4985142;28;20039;-65
2021/07/26 05:11:51;;;;;;;8.63;6.13;;;19.10;84.20;;;;;;4985351;28;20038;-65
2021/07/26 05:14:16;;;;;;;9.98;6.20;;;19.10;84.20;;;;;;4987306;28;20129;-65
2021/07/26 05:16:42;;;;;;;9.80;5.53;;;19.10;84.30;;;;;;4986823;28;20039;-65
2021/07/26 05:19:08;;;;;;;6.35;5.55;;;19.20;84.30;;;;;;4987092;28;20048;-65
2021/07/26 05:21:33;;;;;;;6.22;5.63;;;19.20;84.30;;;;;;4985079;28;20034;-64
2021/07/26 05:24:00;;;;;;;10.98;6.55;;;19.20;84.10;;;;;;4988796;28;20035;-65
2021/07/26 05:26:27;;;;;;;7.65;4.80;;;19.20;84.10;;;;;;4986745;28;20034;-65
2021/07/26 05:28:53;;;;;;;5.53;4.30;;;19.20;84.20;;;;;;4986487;28;20049;-65
2021/07/26 05:31:18;;;;;;;6.00;4.57;;;19.20;85.00;;;;;;4987766;28;20035;-65
2021/07/26 05:33:45;;;;;;;5.20;4.13;;;19.20;84.10;;;;;;4988342;28;20501;-64
2021/07/26 05:36:11;;;;;;;5.95;4.75;;;19.30;84.10;;;;;;4985256;28;20069;-65
2021/07/26 05:38:36;;;;;;;7.30;5.30;;;19.30;84.20;;;;;;4984832;28;20490;-65
2021/07/26 05:41:02;;;;;;;7.65;4.88;;;19.30;84.10;;;;;;4982139;28;20035;-64
2021/07/26 05:43:28;;;;;;;7.63;5.15;;;19.30;84.30;;;;;;4965719;28;20532;-65
2021/07/26 05:45:53;;;;;;;6.78;5.10;;;19.30;84.40;;;;;;4967053;28;20046;-64
2021/07/26 05:48:19;;;;;;;5.28;4.78;;;19.30;84.30;;;;;;4967006;28;20031;-64
2021/07/26 05:50:44;;;;;;;6.40;5.00;;;19.30;84.50;;;;;;4967296;28;20505;-64
2021/07/26 05:53:10;;;;;;;8.00;4.90;;;19.30;84.90;;;;;;4967260;28;20383;-64
2021/07/26 05:55:38;;;;;;;5.38;4.68;;;19.40;85.20;;;;;;4968685;28;20057;-64
2021/07/26 05:58:04;;;;;;;7.18;4.75;;;19.40;85.30;;;;;;4968134;28;20532;-65
2021/07/26 06:00:40;;;;;;;6.25;5.13;;;19.40;85.60;;;;;;4971823;28;20518;-64
2021/07/26 06:03:06;;;;;;;5.28;4.70;;;19.40;85.60;;;;;;4971550;28;20087;-64
2021/07/26 06:05:32;;;;;;;6.78;4.72;;;19.40;85.50;;;;;;4972732;28;20031;-65
2021/07/26 06:07:57;;;;;;;4.88;4.47;;;19.40;85.50;;;;;;4971669;28;20034;-65
2021/07/26 06:10:23;;;;;;;6.47;4.40;;;19.50;85.50;;;;;;4970687;28;20084;-64
2021/07/26 06:12:52;;;;;;;5.45;4.22;;;19.50;85.60;;;;;;4971470;28;20063;-65
2021/07/26 06:15:18;;;;;;;4.82;4.32;;;19.60;85.90;;;;;;4969992;28;20050;-64
2021/07/26 06:17:43;;;;;;;5.03;4.45;;;19.70;85.50;;;;;;4971877;28;20035;-64
2021/07/26 06:20:09;;;;;;;10.73;4.60;;;19.70;85.50;;;;;;4967539;28;20473;-64
2021/07/26 06:22:34;;;;;;;5.60;4.45;;;19.80;85.30;;;;;;4970332;28;20239;-64
2021/07/26 06:25:00;;;;;;;5.53;4.05;;;19.80;85.40;;;;;;4972369;28;20397;-65
2021/07/26 06:27:26;;;;;;;4.95;3.83;;;19.90;85.40;;;;;;4970821;28;20042;-64
2021/07/26 06:29:53;;;;;;;4.38;3.97;;;19.90;85.20;;;;;;4969521;28;20039;-64
2021/07/26 06:32:19;;;;;;;4.72;4.32;;;20.00;85.10;;;;;;4970191;28;20066;-64
2021/07/26 06:34:44;;;;;;;6.63;4.65;;;20.00;85.10;;;;;;4970410;28;20058;-64
2021/07/26 06:37:10;;;;;;;4.78;4.28;;;20.10;85.30;;;;;;4970317;28;20526;-64
2021/07/26 06:39:36;;;;;;;8.10;4.30;;;20.10;85.20;;;;;;4972320;28;20137;-64
2021/07/26 06:42:02;;;;;;;6.35;4.22;;;20.20;84.80;;;;;;4971642;28;20034;-64
2021/07/26 06:44:28;;;;;;;8.63;4.53;;;20.30;84.50;;;;;;4968011;28;20058;-64
2021/07/26 06:46:53;;;;;;;5.97;4.63;;;20.40;84.50;;;;;;4971662;28;20039;-64
2021/07/26 06:49:19;;;;;;;6.30;4.22;;;20.40;84.30;;;;;;4967311;28;20446;-64
2021/07/26 06:51:44;;;;;;;5.18;4.10;;;20.50;84.00;;;;;;4969488;28;20102;-64
2021/07/26 06:54:10;;;;;;;7.57;4.40;;;20.50;84.00;;;;;;4971063;28;20031;-64
2021/07/26 06:56:36;;;;;;;7.80;3.72;;;20.60;84.00;;;;;;4970477;28;20035;-64
2021/07/26 06:59:01;;;;;;;4.85;4.10;;;20.60;83.80;;;;;;4970668;28;20530;-64
2021/07/26 07:01:27;;;;;;;5.05;4.15;;;20.80;83.40;;;;;;4964017;28;20042;-64
2021/07/26 07:03:55;;;;;;;4.75;3.67;;;20.80;83.00;;;;;;4964512;28;20038;-65
2021/07/26 07:06:23;;;;;;;5.38;4.00;;;20.80;82.60;;;;;;4971507;28;20039;-64
2021/07/26 07:08:49;;;;;;;9.65;3.67;;;20.90;82.40;;;;;;4970059;28;20031;-64
2021/07/26 07:11:16;;;;;;;5.75;3.63;;;21.00;82.20;;;;;;4968258;28;20383;-64
2021/07/26 07:13:45;;;;;;;3.53;3.22;;;21.00;82.20;;;;;;4969438;28;20062;-64
2021/07/26 07:16:14;;;;;;;5.10;3.20;;;21.00;82.30;;;;;;4968589;28;20585;-64
2021/07/26 07:18:39;;;;;;;3.30;3.05;;;21.10;82.60;;;;;;4969318;28;20383;-64
2021/07/26 07:21:05;;;;;;;8.32;3.70;;;21.10;82.20;;;;;;4967961;28;20039;-64
2021/07/26 07:23:31;;;;;;;4.70;4.30;;;21.20;82.40;;;;;;4968548;28;20155;-64
2021/07/26 07:25:57;;;;;;;5.20;4.40;;;21.20;81.70;;;;;;4970897;28;20034;-64
2021/07/26 07:28:23;;;;;;;5.50;4.07;;;21.20;81.00;;;;;;4969703;28;20038;-63
2021/07/26 07:30:48;;;;;;;5.22;4.72;;;21.20;81.20;;;;;;4967152;28;20077;-64
2021/07/26 07:33:14;;;;;;;6.28;4.40;;;21.20;81.30;;;;;;4962290;28;20502;-64
2021/07/26 07:35:40;;;;;;;4.32;3.88;;;21.20;81.20;;;;;;4970164;28;20041;-64
2021/07/26 07:38:05;;;;;;;4.30;3.90;;;21.20;81.00;;;;;;4968719;28;20057;-64
2021/07/26 07:40:31;;;;;;;6.57;4.32;;;21.20;80.80;;;;;;4969771;28;20043;-64
2021/07/26 07:42:57;;;;;;;4.53;4.10;;;21.20;80.90;;;;;;4967312;28;20035;-65
2021/07/26 07:45:22;;;;;;;4.60;4.15;;;21.20;80.80;;;;;;4970106;28;20042;-64
2021/07/26 07:47:51;;;;;;;4.03;3.63;;;21.20;81.00;;;;;;4964542;28;20125;-64
2021/07/26 07:50:20;;;;;;;4.07;3.60;;;21.30;80.90;;;;;;4971028;28;20070;-64
2021/07/26 07:52:45;;;;;;;6.20;3.55;;;21.30;80.40;;;;;;4968573;28;20109;-64
2021/07/26 07:55:11;;;;;;;3.22;3.00;;;21.30;80.10;;;;;;4969932;28;20043;-64
2021/07/26 07:57:37;;;;;;;4.60;3.25;;;21.40;80.10;;;;;;4968563;28;20064;-64
2021/07/26 08:00:09;;;;;;;5.22;3.50;;;21.40;79.60;;;;;;4968352;28;20046;-65
2021/07/26 08:02:35;;;;;;;3.95;3.00;;;21.40;79.30;;;;;;4964544;28;20394;-64
2021/07/26 08:05:01;;;;;;;3.78;3.30;;;21.40;79.60;;;;;;4969173;28;20121;-64
2021/07/26 08:07:26;;;;;;;6.00;3.13;;;21.40;79.60;;;;;;4966187;28;21019;-64
2021/07/26 08:09:52;;;;;;;6.10;3.58;;;21.50;79.60;;;;;;4968095;28;20093;-64
2021/07/26 08:12:18;;;;;;;4.13;2.97;;;21.50;79.60;;;;;;4967910;28;20041;-64
2021/07/26 08:14:44;;;;;;;7.20;3.38;;;21.60;79.60;;;;;;4968810;28;20497;-64
2021/07/26 08:17:10;;;;;;;4.70;3.28;;;21.60;79.20;;;;;;4966566;28;20043;-64
2021/07/26 08:19:35;;;;;;;3.80;3.40;;;21.70;79.10;;;;;;4966403;28;20109;-64
2021/07/26 08:22:01;;;;;;;3.65;3.13;;;21.70;78.80;;;;;;4967447;28;20035;-63
2021/07/26 08:24:27;;;;;;;4.18;3.00;;;21.70;79.00;;;;;;4968285;28;20041;-64
2021/07/26 08:26:52;;;;;;;3.67;3.05;;;21.80;78.90;;;;;;4970508;28;20048;-65
2021/07/26 08:29:18;;;;;;;3.50;2.90;;;21.80;78.60;;;;;;4969018;28;20039;-64
2021/07/26 08:31:44;;;;;;;3.55;3.00;;;21.80;78.50;;;;;;4969200;28;20062;-65
2021/07/26 08:34:09;;;;;;;3.08;2.70;;;21.90;78.90;;;;;;4965194;28;20049;-64
2021/07/26 08:36:35;;;;;;;3.15;2.95;;;21.90;78.30;;;;;;4969882;28;20129;-64
2021/07/26 08:39:01;;;;;;;3.40;3.10;;;21.90;78.20;;;;;;4968881;28;20038;-64
2021/07/26 08:41:27;;;;;;;2.88;2.67;;;22.00;78.00;;;;;;4969995;28;20037;-64
2021/07/26 08:43:53;;;;;;;3.00;2.80;;;22.00;77.40;;;;;;4968653;28;20038;-64
2021/07/26 08:46:20;;;;;;;3.58;2.60;;;22.10;77.50;;;;;;4970056;28;20066;-64
2021/07/26 08:48:47;;;;;;;2.70;2.33;;;22.10;77.20;;;;;;4965724;28;20085;-64
2021/07/26 08:51:16;;;;;;;2.80;2.60;;;22.20;77.50;;;;;;4965766;28;20039;-64
2021/07/26 08:53:43;;;;;;;2.47;2.30;;;22.20;76.70;;;;;;4967992;28;20591;-64
2021/07/26 08:56:08;;;;;;;2.95;2.25;;;22.30;76.70;;;;;;4965364;28;20118;-64
2021/07/26 08:58:35;;;;;;;2.58;2.38;;;22.40;76.90;;;;;;4966448;28;20161;-64
2021/07/26 09:01:01;;;;;;;2.95;2.67;;;22.50;76.80;;;;;;4968581;28;20027;-64
2021/07/26 09:03:27;;;;;;;4.88;2.58;;;22.50;76.80;;;;;;4966294;28;20035;-64
2021/07/26 09:05:53;;;;;;;4.35;2.47;;;22.70;76.60;;;;;;4967329;28;20041;-64
2021/07/26 09:08:18;;;;;;;2.80;2.60;;;22.80;76.60;;;;;;4967251;28;20158;-64
2021/07/26 09:10:44;;;;;;;2.40;2.20;;;22.90;76.30;;;;;;4965349;28;20123;-64
2021/07/26 09:13:12;;;;;;;3.47;2.35;;;23.00;74.90;;;;;;4966539;28;20531;-64
2021/07/26 09:15:40;;;;;;;2.05;1.92;;;23.10;75.60;;;;;;4967474;28;20620;-64
2021/07/26 09:18:08;;;;;;;3.88;2.17;;;23.20;74.60;;;;;;4966592;28;20039;-64
2021/07/26 09:20:36;;;;;;;6.03;2.13;;;23.30;73.40;;;;;;4964195;28;20042;-65
2021/07/26 09:23:13;;;;;;;2.85;1.90;;;23.30;73.90;;;;;;4965532;28;20138;-65
2021/07/26 09:25:40;;;;;;;2.13;1.92;;;23.40;72.50;;;;;;4968844;28;20039;-64
2021/07/26 09:28:12;;;;;;;3.00;1.80;;;23.50;72.70;;;;;;4968604;28;20039;-65
2021/07/26 09:30:45;;;;;;;2.15;1.73;;;23.50;71.20;;;;;;4967052;28;20027;-65
2021/07/26 09:33:24;;;;;;;2.10;1.90;;;23.60;70.70;;;;;;4972573;28;20049;-65
2021/07/26 09:36:08;;;;;;;2.13;1.90;;;23.60;70.90;;;;;;4970832;28;20027;-65
2021/07/26 09:38:35;;;;;;;2.30;1.98;;;23.60;70.90;;;;;;4971255;28;20520;-65
2021/07/26 09:41:02;;;;;;;2.28;2.08;;;23.70;72.00;;;;;;4970932;28;20459;-65
2021/07/26 09:43:28;;;;;;;4.78;1.98;;;23.80;71.70;;;;;;4978560;28;20046;-65
2021/07/26 09:45:55;;;;;;;2.78;1.80;;;23.90;71.40;;;;;;4972171;28;20117;-65
2021/07/26 09:48:29;;;;;;;2.60;2.20;;;24.00;69.80;;;;;;4968964;28;20046;-65
2021/07/26 09:50:56;;;;;;;1.88;1.77;;;24.00;68.70;;;;;;4969645;28;20047;-65
2021/07/26 09:53:24;;;;;;;1.98;1.77;;;24.10;70.10;;;;;;4970389;28;20041;-65
2021/07/26 09:56:15;;;;;;;1.90;1.75;;;24.20;70.00;;;;;;4972107;28;20043;-65
2021/07/26 09:58:42;;;;;;;2.30;2.10;;;24.30;66.90;;;;;;4970995;28;20089;-65
2021/07/26 10:01:09;;;;;;;2.10;1.90;;;24.40;67.70;;;;;;4970857;28;20039;-65
2021/07/26 10:03:39;;;;;;;3.97;2.10;;;24.50;67.60;;;;;;4973126;28;20046;-65
2021/07/26 10:06:06;;;;;;;1.70;1.60;;;24.60;67.70;;;;;;4968018;28;20109;-65
2021/07/26 10:08:32;;;;;;;2.30;2.05;;;24.70;66.00;;;;;;4972049;28;20035;-65
2021/07/26 10:10:58;;;;;;;1.83;1.73;;;24.70;64.90;;;;;;4968953;28;20122;-65
2021/07/26 10:13:24;;;;;;;2.35;2.05;;;24.80;65.50;;;;;;4970619;28;20118;-65
2021/07/26 10:15:50;;;;;;;2.53;1.88;;;24.80;64.50;;;;;;4962479;28;20031;-65
2021/07/26 10:18:16;;;;;;;2.00;1.77;;;24.90;63.30;;;;;;4969788;28;20041;-65
2021/07/26 10:20:48;;;;;;;1.73;1.63;;;25.00;62.20;;;;;;4968901;28;20192;-64
2021/07/26 10:23:28;;;;;;;2.00;1.80;;;25.00;61.50;;;;;;4969364;28;20111;-65
2021/07/26 10:26:14;;;;;;;1.83;1.73;;;25.00;61.30;;;;;;4971599;28;20498;-64
2021/07/26 10:28:55;;;;;;;1.70;1.60;;;25.10;61.20;;;;;;4969231;28;20047;-65
2021/07/26 10:31:32;;;;;;;2.65;1.83;;;25.20;60.10;;;;;;4972737;28;20070;-65
2021/07/26 10:34:21;;;;;;;2.08;1.92;;;25.20;61.50;;;;;;4968872;28;20069;-65
2021/07/26 10:36:55;;;;;;;2.47;1.80;;;25.30;61.10;;;;;;4968541;28;20117;-65
2021/07/26 10:39:23;;;;;;;1.77;1.67;;;25.30;62.50;;;;;;4961287;28;20343;-65
2021/07/26 10:41:49;;;;;;;3.08;2.10;;;25.40;61.60;;;;;;4972349;28;20027;-65
2021/07/26 10:44:18;;;;;;;3.60;1.63;;;25.40;59.40;;;;;;4970210;28;20023;-65
2021/07/26 10:47:03;;;;;;;1.90;1.80;;;25.50;58.70;;;;;;4968266;28;20058;-65
2021/07/26 10:49:35;;;;;;;2.10;1.75;;;25.50;58.70;;;;;;4970609;28;20521;-65
2021/07/26 10:52:01;;;;;;;2.53;1.70;;;25.50;59.50;;;;;;4968299;28;20443;-65
2021/07/26 10:54:31;;;;;;;2.50;2.08;;;25.60;60.60;;;;;;4968814;28;20121;-65
2021/07/26 10:57:01;;;;;;;2.38;1.80;;;25.60;60.20;;;;;;4971125;28;20042;-65
2021/07/26 10:59:27;;;;;;;1.90;1.80;;;25.60;58.40;;;;;;4971617;28;20036;-65
2021/07/26 11:02:03;;;;;;;2.00;1.80;;;25.70;60.40;;;;;;4968319;28;20031;-65
2021/07/26 11:04:40;;;;;;;2.00;1.55;;;25.70;59.30;;;;;;4964648;28;20374;-65
2021/07/26 11:07:08;;;;;;;2.13;1.52;;;25.80;59.50;;;;;;4969119;28;20038;-65
2021/07/26 11:09:36;;;;;;;1.80;1.60;;;25.80;60.00;;;;;;4968540;28;20026;-65
2021/07/26 11:12:02;;;;;;;1.58;1.48;;;25.90;59.50;;;;;;4967156;28;20038;-65
2021/07/26 11:14:29;;;;;;;1.80;1.70;;;25.90;59.50;;;;;;4967502;28;20041;-65
2021/07/26 11:17:07;;;;;;;1.88;1.67;;;26.00;59.20;;;;;;4969212;28;20031;-65
2021/07/26 11:19:44;;;;;;;1.92;1.60;;;26.00;56.80;;;;;;4968686;28;20461;-65
2021/07/26 11:22:15;;;;;;;1.95;1.80;;;26.10;57.20;;;;;;4970097;28;20026;-65
2021/07/26 11:24:41;;;;;;;2.28;1.75;;;26.00;56.60;;;;;;4967641;28;20386;-65
2021/07/26 11:27:14;;;;;;;1.83;1.70;;;26.00;56.70;;;;;;4971291;28;20057;-65
2021/07/26 11:29:44;;;;;;;1.70;1.60;;;26.00;56.90;;;;;;4970929;28;20039;-65
2021/07/26 11:32:15;;;;;;;1.98;1.73;;;25.90;58.00;;;;;;4969219;28;20050;-65
2021/07/26 11:34:43;;;;;;;2.55;1.65;;;25.90;57.90;;;;;;4969412;28;20385;-65
2021/07/26 11:37:14;;;;;;;1.90;1.80;;;26.00;58.60;;;;;;4969596;28;20537;-65
2021/07/26 11:39:51;;;;;;;1.80;1.70;;;26.00;58.40;;;;;;4965153;28;20039;-65
2021/07/26 11:42:23;;;;;;;1.92;1.73;;;26.10;58.60;;;;;;4970505;28;20035;-65
2021/07/26 11:44:50;;;;;;;1.67;1.58;;;26.10;58.90;;;;;;4970738;28;20037;-65
2021/07/26 11:47:18;;;;;;;1.77;1.67;;;26.20;59.10;;;;;;4969866;28;20034;-65
2021/07/26 11:49:50;;;;;;;1.88;1.77;;;26.30;59.50;;;;;;4968026;28;20035;-65
2021/07/26 11:52:17;;;;;;;2.20;2.00;;;26.30;58.20;;;;;;4969384;28;20035;-65
2021/07/26 11:54:43;;;;;;;2.92;2.15;;;26.40;58.80;;;;;;4967489;28;20129;-65
2021/07/26 11:57:13;;;;;;;1.88;1.75;;;26.50;58.40;;;;;;4970226;28;20351;-65
2021/07/26 11:59:40;;;;;;;2.05;1.90;;;26.50;58.30;;;;;;4970131;28;20043;-65
2021/07/26 12:02:22;;;;;;;2.22;1.80;;;26.60;58.60;;;;;;4968455;28;20030;-65
2021/07/26 12:04:48;;;;;;;2.58;2.08;;;26.70;57.60;;;;;;4968878;28;20030;-65
2021/07/26 12:07:14;;;;;;;2.40;2.20;;;26.80;57.50;;;;;;4970960;28;20031;-65
2021/07/26 12:09:49;;;;;;;2.05;1.95;;;26.80;57.50;;;;;;4965166;28;20046;-65
2021/07/26 12:12:16;;;;;;;2.65;1.80;;;26.90;57.10;;;;;;4964165;28;20127;-65
2021/07/26 12:14:44;;;;;;;2.38;1.98;;;26.90;57.50;;;;;;4967882;28;20046;-65
2021/07/26 12:17:24;;;;;;;2.30;1.80;;;26.90;56.20;;;;;;4970210;28;20047;-65
2021/07/26 12:20:01;;;;;;;1.85;1.75;;;26.90;54.00;;;;;;4968740;28;20054;-65
2021/07/26 13:06:51;;;;;;;1.55;1.42;;;27.10;54.50;;;;;;4968998;28;20038;-65
2021/07/26 13:09:16;;;;;;;1.60;1.48;;;27.20;53.50;;;;;;4964009;28;21206;-65
2021/07/26 13:11:42;;;;;;;1.75;1.65;;;27.20;54.60;;;;;;4964741;28;20027;-65
2021/07/26 13:14:07;;;;;;;4.00;1.50;;;27.20;54.30;;;;;;4968054;28;20272;-65
2021/07/26 13:16:33;;;;;;;2.20;2.00;;;27.30;54.10;;;;;;4969013;28;20071;-65
2021/07/26 13:18:59;;;;;;;3.40;1.90;;;27.30;53.50;;;;;;4967441;28;20027;-65
2021/07/26 13:21:25;;;;;;;1.63;1.52;;;27.30;52.40;;;;;;4968696;28;20379;-65
2021/07/26 13:23:51;;;;;;;2.15;1.70;;;27.40;53.20;;;;;;4966179;28;20097;-65
2021/07/26 13:26:18;;;;;;;2.28;1.80;;;27.40;53.20;;;;;;4966482;28;20059;-65
2021/07/26 13:28:44;;;;;;;1.60;1.50;;;27.40;54.10;;;;;;4962685;28;20053;-65
2021/07/26 13:31:11;;;;;;;1.70;1.52;;;27.50;53.60;;;;;;4962076;28;20372;-65
2021/07/26 13:33:36;;;;;;;1.63;1.52;;;27.60;53.70;;;;;;4961311;28;20175;-65
2021/07/26 13:36:02;;;;;;;1.58;1.48;;;27.70;53.60;;;;;;4962249;28;20035;-65